sim
Sign-in with your pilot id or email,
or register
Callsign
Passwort

Schedule Details

Flight Number: OEO2721
Departure: Catania Fontanarossa Airport (LICC) at 10:20
Arrival: Munich Airport (EDDM) at 12:35

Weather Information
Getting current METAR information for LICC 191420Z 07010KT CAVOK 29/21 Q1015
Getting current METAR information for EDDM 191420Z 04003KT 290V070 CAVOK 22/12 Q1018 NOSIG

Schedule Frequency

Route Map